sensor_id;sensor_type;location;lat;lon;timestamp;pressure;altitude;pressure_sealevel;temperature;humidity
14882;BME280;7533;51.278;12.588;2022-09-09T00:01:51;99669.56;;;25.47;63.50
14882;BME280;7533;51.278;12.588;2022-09-09T00:07:00;99678.72;;;25.46;63.90
14882;BME280;7533;51.278;12.588;2022-09-09T00:12:11;99675.59;;;25.41;64.25
14882;BME280;7533;51.278;12.588;2022-09-09T00:17:22;99679.44;;;25.38;64.13
14882;BME280;7533;51.278;12.588;2022-09-09T00:22:29;99681.44;;;25.36;64.19
14882;BME280;7533;51.278;12.588;2022-09-09T00:27:39;99675.31;;;25.34;64.42
14882;BME280;7533;51.278;12.588;2022-09-09T00:32:44;99676.31;;;25.33;64.21
14882;BME280;7533;51.278;12.588;2022-09-09T00:37:48;99672.19;;;25.29;64.69
14882;BME280;7533;51.278;12.588;2022-09-09T00:43:09;99658.97;;;25.26;64.16
14882;BME280;7533;51.278;12.588;2022-09-09T00:48:15;99667.22;;;25.24;64.43
14882;BME280;7533;51.278;12.588;2022-09-09T00:53:27;99664.81;;;25.21;64.60
14882;BME280;7533;51.278;12.588;2022-09-09T00:58:33;99656.97;;;25.18;64.32
14882;BME280;7533;51.278;12.588;2022-09-09T01:03:38;99660.97;;;25.14;64.16
14882;BME280;7533;51.278;12.588;2022-09-09T01:09:13;99662.97;;;25.12;64.14
14882;BME280;7533;51.278;12.588;2022-09-09T01:14:32;99666.81;;;25.10;64.43
14882;BME280;7533;51.278;12.588;2022-09-09T01:19:47;99668.97;;;25.06;64.46
14882;BME280;7533;51.278;12.588;2022-09-09T01:25:12;99660.53;;;24.99;64.37
14882;BME280;7533;51.278;12.588;2022-09-09T01:30:38;99661.38;;;25.00;64.38
14882;BME280;7533;51.278;12.588;2022-09-09T01:35:49;99662.66;;;24.96;64.64
14882;BME280;7533;51.278;12.588;2022-09-09T01:40:54;99663.97;;;24.92;64.53
14882;BME280;7533;51.278;12.588;2022-09-09T01:46:05;99662.25;;;24.91;64.33
14882;BME280;7533;51.278;12.588;2022-09-09T01:51:09;99662.38;;;24.89;64.77
14882;BME280;7533;51.278;12.588;2022-09-09T01:56:24;99655.44;;;24.87;64.65
14882;BME280;7533;51.278;12.588;2022-09-09T02:01:40;99659.25;;;24.84;64.84
14882;BME280;7533;51.278;12.588;2022-09-09T02:06:48;99656.00;;;24.80;64.73
14882;BME280;7533;51.278;12.588;2022-09-09T02:12:05;99665.25;;;24.78;64.67
14882;BME280;7533;51.278;12.588;2022-09-09T02:17:23;99661.84;;;24.76;64.81
14882;BME280;7533;51.278;12.588;2022-09-09T02:22:34;99665.66;;;24.73;64.73
14882;BME280;7533;51.278;12.588;2022-09-09T02:27:39;99669.69;;;24.69;64.71
14882;BME280;7533;51.278;12.588;2022-09-09T02:32:45;99677.91;;;24.68;64.79
14882;BME280;7533;51.278;12.588;2022-09-09T02:37:53;99679.06;;;24.65;64.72
14882;BME280;7533;51.278;12.588;2022-09-09T02:42:58;99671.09;;;24.64;64.67
14882;BME280;7533;51.278;12.588;2022-09-09T02:48:10;99669.50;;;24.61;64.59
14882;BME280;7533;51.278;12.588;2022-09-09T02:53:20;99668.94;;;24.58;64.78
14882;BME280;7533;51.278;12.588;2022-09-09T02:58:25;99670.09;;;24.55;64.70
14882;BME280;7533;51.278;12.588;2022-09-09T03:03:35;99679.19;;;24.54;64.86
14882;BME280;7533;51.278;12.588;2022-09-09T03:08:42;99668.53;;;24.52;64.95
14882;BME280;7533;51.278;12.588;2022-09-09T03:13:52;99667.78;;;24.50;64.71
14882;BME280;7533;51.278;12.588;2022-09-09T03:18:56;99677.06;;;24.48;64.56
14882;BME280;7533;51.278;12.588;2022-09-09T03:23:59;99677.91;;;24.48;64.62
14882;BME280;7533;51.278;12.588;2022-09-09T03:29:05;99674.63;;;24.45;64.72
14882;BME280;7533;51.278;12.588;2022-09-09T03:34:10;99682.03;;;24.43;64.54
14882;BME280;7533;51.278;12.588;2022-09-09T03:39:13;99673.19;;;24.41;64.88
14882;BME280;7533;51.278;12.588;2022-09-09T03:44:17;99664.38;;;24.39;64.94
14882;BME280;7533;51.278;12.588;2022-09-09T03:49:22;99669.94;;;24.37;64.72
14882;BME280;7533;51.278;12.588;2022-09-09T03:54:25;99661.06;;;24.35;64.73
14882;BME280;7533;51.278;12.588;2022-09-09T03:59:30;99668.44;;;24.33;64.79
14882;BME280;7533;51.278;12.588;2022-09-09T04:04:34;99665.75;;;24.33;64.46
14882;BME280;7533;51.278;12.588;2022-09-09T04:09:37;99670.47;;;24.31;64.47
14882;BME280;7533;51.278;12.588;2022-09-09T04:14:40;99669.59;;;24.31;64.56
14882;BME280;7533;51.278;12.588;2022-09-09T04:19:44;99666.16;;;24.28;64.38
14882;BME280;7533;51.278;12.588;2022-09-09T04:24:48;99662.75;;;24.26;64.51
14882;BME280;7533;51.278;12.588;2022-09-09T04:29:53;99675.56;;;24.24;64.35
14882;BME280;7533;51.278;12.588;2022-09-09T04:35:01;99680.25;;;24.22;64.42
14882;BME280;7533;51.278;12.588;2022-09-09T04:40:05;99682.25;;;24.20;64.49
14882;BME280;7533;51.278;12.588;2022-09-09T04:45:11;99679.81;;;24.17;64.44
14882;BME280;7533;51.278;12.588;2022-09-09T04:50:17;99679.94;;;24.16;64.27
14882;BME280;7533;51.278;12.588;2022-09-09T04:55:21;99681.81;;;24.15;64.35
14882;BME280;7533;51.278;12.588;2022-09-09T05:00:23;99669.41;;;24.13;64.26
14882;BME280;7533;51.278;12.588;2022-09-09T05:05:28;99676.66;;;24.12;64.32
14882;BME280;7533;51.278;12.588;2022-09-09T05:10:32;99678.66;;;24.10;64.33
14882;BME280;7533;51.278;12.588;2022-09-09T05:15:35;99693.88;;;24.11;64.27
14882;BME280;7533;51.278;12.588;2022-09-09T05:20:39;99693.16;;;24.09;64.39
14882;BME280;7533;51.278;12.588;2022-09-09T05:25:55;99696.88;;;24.08;64.46
14882;BME280;7533;51.278;12.588;2022-09-09T05:30:59;99700.44;;;24.09;64.58
14882;BME280;7533;51.278;12.588;2022-09-09T05:36:10;99699.56;;;24.08;64.57
14882;BME280;7533;51.278;12.588;2022-09-09T05:41:16;99690.63;;;24.08;64.35
14882;BME280;7533;51.278;12.588;2022-09-09T05:46:22;99702.28;;;24.08;64.54
14882;BME280;7533;51.278;12.588;2022-09-09T05:51:29;99695.13;;;24.07;64.56
14882;BME280;7533;51.278;12.588;2022-09-09T05:56:36;99693.31;;;24.08;64.60
14882;BME280;7533;51.278;12.588;2022-09-09T06:01:41;99699.56;;;24.08;64.50
14882;BME280;7533;51.278;12.588;2022-09-09T06:06:53;99702.28;;;24.08;64.42
14882;BME280;7533;51.278;12.588;2022-09-09T06:11:57;99700.53;;;24.07;64.42
14882;BME280;7533;51.278;12.588;2022-09-09T06:17:00;99702.28;;;24.08;64.47
14882;BME280;7533;51.278;12.588;2022-09-09T06:22:06;99706.84;;;24.08;64.54
14882;BME280;7533;51.278;12.588;2022-09-09T06:27:11;99703.25;;;24.07;64.54
14882;BME280;7533;51.278;12.588;2022-09-09T06:32:16;99699.56;;;24.08;64.69
14882;BME280;7533;51.278;12.588;2022-09-09T06:37:20;99701.44;;;24.08;64.68
14882;BME280;7533;51.278;12.588;2022-09-09T06:42:25;99717.50;;;24.09;64.58
14882;BME280;7533;51.278;12.588;2022-09-09T06:47:38;99713.94;;;24.09;64.73
14882;BME280;7533;51.278;12.588;2022-09-09T06:52:45;99711.25;;;24.09;64.66
14882;BME280;7533;51.278;12.588;2022-09-09T06:57:49;99712.09;;;24.09;64.73
14882;BME280;7533;51.278;12.588;2022-09-09T07:02:56;99712.94;;;24.10;64.49
14882;BME280;7533;51.278;12.588;2022-09-09T07:08:00;99713.94;;;24.09;64.50
14882;BME280;7533;51.278;12.588;2022-09-09T07:13:03;99716.50;;;24.10;64.49
14882;BME280;7533;51.278;12.588;2022-09-09T07:18:07;99712.09;;;24.09;64.79
14882;BME280;7533;51.278;12.588;2022-09-09T07:23:13;99711.94;;;24.11;64.77
14882;BME280;7533;51.278;12.588;2022-09-09T07:28:16;99712.53;;;24.14;64.71
14882;BME280;7533;51.278;12.588;2022-09-09T07:33:19;99712.41;;;24.16;64.52
14882;BME280;7533;51.278;12.588;2022-09-09T07:38:23;99719.38;;;24.18;64.69
14882;BME280;7533;51.278;12.588;2022-09-09T07:43:26;99706.78;;;23.98;63.04
14882;BME280;7533;51.278;12.588;2022-09-09T07:48:29;99724.72;;;23.68;63.49
14882;BME280;7533;51.278;12.588;2022-09-09T07:53:34;99724.84;;;23.46;64.17
14882;BME280;7533;51.278;12.588;2022-09-09T07:58:39;99739.53;;;23.32;64.53
14882;BME280;7533;51.278;12.588;2022-09-09T08:03:43;99748.28;;;23.04;65.23
14882;BME280;7533;51.278;12.588;2022-09-09T08:08:49;99748.03;;;23.07;65.27
14882;BME280;7533;51.278;12.588;2022-09-09T08:13:52;99746.09;;;22.98;65.89
14882;BME280;7533;51.278;12.588;2022-09-09T08:19:03;99756.16;;;22.95;65.64
14882;BME280;7533;51.278;12.588;2022-09-09T08:24:09;99742.91;;;22.92;66.17
14882;BME280;7533;51.278;12.588;2022-09-09T08:29:13;99752.34;;;22.98;66.34
14882;BME280;7533;51.278;12.588;2022-09-09T08:34:16;99752.09;;;23.01;66.46
14882;BME280;7533;51.278;12.588;2022-09-09T08:39:24;99747.19;;;22.95;66.23
14882;BME280;7533;51.278;12.588;2022-09-09T08:44:43;99766.22;;;22.93;66.15
14882;BME280;7533;51.278;12.588;2022-09-09T08:50:02;99755.56;;;22.81;66.46
14882;BME280;7533;51.278;12.588;2022-09-09T08:55:22;99771.38;;;22.85;66.82
14882;BME280;7533;51.278;12.588;2022-09-09T09:00:36;99771.75;;;22.81;67.70
14882;BME280;7533;51.278;12.588;2022-09-09T09:05:47;99763.91;;;22.78;68.36
14882;BME280;7533;51.278;12.588;2022-09-09T09:10:54;99762.94;;;22.79;68.12
14882;BME280;7533;51.278;12.588;2022-09-09T09:16:06;99753.47;;;22.84;68.00
14882;BME280;7533;51.278;12.588;2022-09-09T09:21:16;99756.16;;;22.95;67.74
14882;BME280;7533;51.278;12.588;2022-09-09T09:26:26;99771.56;;;23.05;67.62
14882;BME280;7533;51.278;12.588;2022-09-09T09:31:32;99762.09;;;23.10;67.71
14882;BME280;7533;51.278;12.588;2022-09-09T09:36:41;99756.78;;;23.20;67.94
14882;BME280;7533;51.278;12.588;2022-09-09T09:41:49;99745.47;;;23.26;68.04
14882;BME280;7533;51.278;12.588;2022-09-09T09:47:06;99757.81;;;23.29;68.10
14882;BME280;7533;51.278;12.588;2022-09-09T09:52:13;99749.00;;;23.27;68.10
14882;BME280;7533;51.278;12.588;2022-09-09T09:57:25;99761.53;;;23.28;68.63
14882;BME280;7533;51.278;12.588;2022-09-09T10:02:37;99762.66;;;23.25;68.16
14882;BME280;7533;51.278;12.588;2022-09-09T10:07:44;99747.16;;;23.27;68.19
14882;BME280;7533;51.278;12.588;2022-09-09T10:12:55;99754.41;;;23.27;68.44
14882;BME280;7533;51.278;12.588;2022-09-09T10:18:15;99760.28;;;23.32;68.28
14882;BME280;7533;51.278;12.588;2022-09-09T10:23:31;99738.09;;;23.49;68.86
14882;BME280;7533;51.278;12.588;2022-09-09T10:29:01;99743.53;;;23.59;68.88
14882;BME280;7533;51.278;12.588;2022-09-09T10:34:18;99744.34;;;23.70;69.21
14882;BME280;7533;51.278;12.588;2022-09-09T10:39:35;99736.31;;;23.80;69.37
14882;BME280;7533;51.278;12.588;2022-09-09T10:45:00;99723.81;;;23.89;69.21
14882;BME280;7533;51.278;12.588;2022-09-09T10:50:20;99726.97;;;23.94;69.23
14882;BME280;7533;51.278;12.588;2022-09-09T10:55:52;99720.16;;;23.99;69.20
14882;BME280;7533;51.278;12.588;2022-09-09T11:01:03;99706.25;;;24.04;69.22
14882;BME280;7533;51.278;12.588;2022-09-09T11:06:13;99714.81;;;24.09;69.15
14882;BME280;7533;51.278;12.588;2022-09-09T11:11:19;99714.25;;;24.15;68.91
14882;BME280;7533;51.278;12.588;2022-09-09T11:16:29;99715.53;;;24.21;68.81
14882;BME280;7533;51.278;12.588;2022-09-09T11:21:38;99711.44;;;24.26;68.62
14882;BME280;7533;51.278;12.588;2022-09-09T11:26:47;99706.31;;;24.33;68.74
14882;BME280;7533;51.278;12.588;2022-09-09T11:32:03;99699.81;;;24.36;68.48
14882;BME280;7533;51.278;12.588;2022-09-09T11:43:02;99686.88;;;24.49;68.70
14882;BME280;7533;51.278;12.588;2022-09-09T11:48:23;99680.75;;;24.57;68.06
14882;BME280;7533;51.278;12.588;2022-09-09T11:53:27;99683.19;;;24.60;68.22
14882;BME280;7533;51.278;12.588;2022-09-09T11:58:36;99686.91;;;24.59;68.36
14882;BME280;7533;51.278;12.588;2022-09-09T12:03:45;99680.19;;;24.63;68.35
14882;BME280;7533;51.278;12.588;2022-09-09T12:08:52;99681.91;;;24.64;68.11
14882;BME280;7533;51.278;12.588;2022-09-09T12:13:57;99671.50;;;24.69;68.50
14882;BME280;7533;51.278;12.588;2022-09-09T12:19:14;99670.38;;;24.71;68.05
14882;BME280;7533;51.278;12.588;2022-09-09T12:24:22;99682.63;;;24.75;67.88
14882;BME280;7533;51.278;12.588;2022-09-09T12:29:37;99675.66;;;24.83;67.58
14882;BME280;7533;51.278;12.588;2022-09-09T12:34:46;99671.66;;;24.87;66.63
14882;BME280;7533;51.278;12.588;2022-09-09T12:39:55;99655.97;;;24.90;66.63
14882;BME280;7533;51.278;12.588;2022-09-09T12:44:59;99654.53;;;24.96;66.81
14882;BME280;7533;51.278;12.588;2022-09-09T12:50:04;99660.53;;;24.99;66.69
14882;BME280;7533;51.278;12.588;2022-09-09T12:55:07;99649.56;;;25.01;66.61
14882;BME280;7533;51.278;12.588;2022-09-09T13:00:20;99642.00;;;25.04;66.47
14882;BME280;7533;51.278;12.588;2022-09-09T13:05:27;99639.88;;;25.08;66.64
14882;BME280;7533;51.278;12.588;2022-09-09T13:10:34;99648.41;;;25.13;66.85
14882;BME280;7533;51.278;12.588;2022-09-09T13:15:56;99625.03;;;25.22;66.46
14882;BME280;7533;51.278;12.588;2022-09-09T13:21:01;99622.31;;;25.31;66.40
14882;BME280;7533;51.278;12.588;2022-09-09T13:26:06;99612.25;;;25.42;66.18
14882;BME280;7533;51.278;12.588;2022-09-09T13:31:28;99616.66;;;25.52;65.59
14882;BME280;7533;51.278;12.588;2022-09-09T13:36:34;99607.91;;;25.58;65.63
14882;BME280;7533;51.278;12.588;2022-09-09T13:41:45;99610.78;;;25.57;65.65
14882;BME280;7533;51.278;12.588;2022-09-09T13:47:00;99605.97;;;25.51;66.09
14882;BME280;7533;51.278;12.588;2022-09-09T13:52:13;99607.97;;;25.49;66.09
14882;BME280;7533;51.278;12.588;2022-09-09T13:57:19;99620.81;;;25.47;66.19
14882;BME280;7533;51.278;12.588;2022-09-09T14:02:22;99623.38;;;25.48;66.41
14882;BME280;7533;51.278;12.588;2022-09-09T14:07:27;99621.81;;;25.46;66.58
14882;BME280;7533;51.278;12.588;2022-09-09T14:12:30;99627.22;;;25.46;66.13
14882;BME280;7533;51.278;12.588;2022-09-09T14:17:33;99639.78;;;25.47;66.13
14882;BME280;7533;51.278;12.588;2022-09-09T14:22:38;99644.91;;;25.50;65.45
14882;BME280;7533;51.278;12.588;2022-09-09T14:27:42;99647.63;;;25.50;65.00
14882;BME280;7533;51.278;12.588;2022-09-09T14:32:44;99649.31;;;25.51;64.05
14882;BME280;7533;51.278;12.588;2022-09-09T14:37:49;99661.31;;;25.48;64.87
14882;BME280;7533;51.278;12.588;2022-09-09T14:42:52;99651.88;;;25.52;64.66
14882;BME280;7533;51.278;12.588;2022-09-09T14:47:55;99642.19;;;25.50;65.06
14882;BME280;7533;51.278;12.588;2022-09-09T14:52:59;99633.75;;;25.53;65.23
14882;BME280;7533;51.278;12.588;2022-09-09T14:58:02;99635.91;;;25.59;65.13
14882;BME280;7533;51.278;12.588;2022-09-09T15:03:05;99632.72;;;25.64;65.08
14882;BME280;7533;51.278;12.588;2022-09-09T15:08:09;99638.28;;;25.62;65.51
14882;BME280;7533;51.278;12.588;2022-09-09T15:13:12;99640.03;;;25.91;64.57
14882;BME280;7533;51.278;12.588;2022-09-09T15:18:18;99641.81;;;26.09;64.40
14882;BME280;7533;51.278;12.588;2022-09-09T15:23:22;99642.38;;;26.03;64.62
14882;BME280;7533;51.278;12.588;2022-09-09T15:28:24;99626.44;;;26.00;64.98
14882;BME280;7533;51.278;12.588;2022-09-09T15:33:27;99617.91;;;25.95;65.00
14882;BME280;7533;51.278;12.588;2022-09-09T15:38:32;99628.75;;;25.95;65.32
14882;BME280;7533;51.278;12.588;2022-09-09T15:43:34;99635.34;;;25.93;65.16
14882;BME280;7533;51.278;12.588;2022-09-09T15:48:37;99626.50;;;25.91;65.62
14882;BME280;7533;51.278;12.588;2022-09-09T15:53:42;99621.78;;;25.93;65.44
14882;BME280;7533;51.278;12.588;2022-09-09T15:58:44;99619.53;;;25.88;65.87
14882;BME280;7533;51.278;12.588;2022-09-09T16:03:47;99618.81;;;25.86;65.77
14882;BME280;7533;51.278;12.588;2022-09-09T16:08:53;99628.78;;;25.85;66.17
14882;BME280;7533;51.278;12.588;2022-09-09T16:13:56;99624.63;;;25.91;66.10
14882;BME280;7533;51.278;12.588;2022-09-09T16:19:02;99622.22;;;25.88;66.07
14882;BME280;7533;51.278;12.588;2022-09-09T16:24:09;99624.09;;;25.88;66.34
14882;BME280;7533;51.278;12.588;2022-09-09T16:29:13;99623.72;;;26.00;62.98
14882;BME280;7533;51.278;12.588;2022-09-09T16:34:17;99620.81;;;26.29;63.71
14882;BME280;7533;51.278;12.588;2022-09-09T16:39:21;99628.59;;;26.42;63.05
14882;BME280;7533;51.278;12.588;2022-09-09T16:44:24;99629.16;;;26.46;62.82
14882;BME280;7533;51.278;12.588;2022-09-09T16:49:27;99626.00;;;26.50;62.12
14882;BME280;7533;51.278;12.588;2022-09-09T16:54:31;99626.00;;;26.50;62.06
14882;BME280;7533;51.278;12.588;2022-09-09T16:59:34;99636.63;;;26.44;62.05
14882;BME280;7533;51.278;12.588;2022-09-09T17:04:37;99642.53;;;26.29;63.04
14882;BME280;7533;51.278;12.588;2022-09-09T17:09:41;99642.81;;;26.26;62.69
14882;BME280;7533;51.278;12.588;2022-09-09T17:14:45;99651.84;;;26.27;62.31
14882;BME280;7533;51.278;12.588;2022-09-09T17:19:48;99654.56;;;26.27;62.56
14882;BME280;7533;51.278;12.588;2022-09-09T17:24:52;99660.50;;;26.30;62.30
14882;BME280;7533;51.278;12.588;2022-09-09T17:29:56;99662.38;;;26.30;61.83
14882;BME280;7533;51.278;12.588;2022-09-09T17:34:59;99672.66;;;26.26;62.04
14882;BME280;7533;51.278;12.588;2022-09-09T17:40:04;99673.22;;;26.30;61.69
14882;BME280;7533;51.278;12.588;2022-09-09T17:45:08;99671.50;;;26.29;61.82
14882;BME280;7533;51.278;12.588;2022-09-09T17:50:11;99665.53;;;26.25;62.30
14882;BME280;7533;51.278;12.588;2022-09-09T17:55:15;99668.13;;;26.27;61.84
14882;BME280;7533;51.278;12.588;2022-09-09T18:00:18;99671.69;;;26.27;61.54
14882;BME280;7533;51.278;12.588;2022-09-09T18:05:21;99665.41;;;26.27;61.13
14882;BME280;7533;51.278;12.588;2022-09-09T18:10:25;99669.94;;;26.26;61.27
14882;BME280;7533;51.278;12.588;2022-09-09T18:15:28;99681.81;;;26.25;61.35
14882;BME280;7533;51.278;12.588;2022-09-09T18:20:57;99689.94;;;26.25;61.45
14882;BME280;7533;51.278;12.588;2022-09-09T18:26:01;99700.78;;;26.25;61.84
14882;BME280;7533;51.278;12.588;2022-09-09T18:31:05;99697.22;;;26.25;62.06
14882;BME280;7533;51.278;12.588;2022-09-09T18:36:10;99704.53;;;26.24;62.19
14882;BME280;7533;51.278;12.588;2022-09-09T18:41:15;99703.66;;;26.24;62.06
14882;BME280;7533;51.278;12.588;2022-09-09T18:46:19;99710.09;;;26.23;62.19
14882;BME280;7533;51.278;12.588;2022-09-09T18:51:24;99714.69;;;26.22;61.88
14882;BME280;7533;51.278;12.588;2022-09-09T18:56:29;99719.09;;;26.23;62.12
14882;BME280;7533;51.278;12.588;2022-09-09T19:01:33;99726.06;;;26.26;62.18
14882;BME280;7533;51.278;12.588;2022-09-09T19:06:38;99724.34;;;26.25;61.77
14882;BME280;7533;51.278;12.588;2022-09-09T19:11:43;99744.94;;;26.27;61.59
14882;BME280;7533;51.278;12.588;2022-09-09T19:16:46;99739.78;;;26.24;61.56
14882;BME280;7533;51.278;12.588;2022-09-09T19:21:49;99732.50;;;26.25;61.56
14882;BME280;7533;51.278;12.588;2022-09-09T19:26:56;99733.06;;;26.28;61.17
14882;BME280;7533;51.278;12.588;2022-09-09T19:32:01;99727.31;;;26.31;61.07
14882;BME280;7533;51.278;12.588;2022-09-09T19:37:24;99736.47;;;26.30;61.06
14882;BME280;7533;51.278;12.588;2022-09-09T19:42:27;99736.78;;;26.27;60.90
14882;BME280;7533;51.278;12.588;2022-09-09T19:47:32;99746.63;;;26.28;60.76
14882;BME280;7533;51.278;12.588;2022-09-09T19:52:35;99741.59;;;26.33;60.61
14882;BME280;7533;51.278;12.588;2022-09-09T19:57:40;99737.72;;;26.36;61.11
14882;BME280;7533;51.278;12.588;2022-09-09T20:02:43;99739.75;;;26.34;60.63
14882;BME280;7533;51.278;12.588;2022-09-09T20:08:03;99734.31;;;26.34;60.61
14882;BME280;7533;51.278;12.588;2022-09-09T20:13:07;99760.16;;;26.38;60.40
14882;BME280;7533;51.278;12.588;2022-09-09T20:18:09;99756.03;;;26.34;60.61
14882;BME280;7533;51.278;12.588;2022-09-09T20:23:12;99759.44;;;26.36;60.41
14882;BME280;7533;51.278;12.588;2022-09-09T20:28:18;99763.72;;;26.38;60.15
14882;BME280;7533;51.278;12.588;2022-09-09T20:33:21;99777.00;;;26.42;60.09
14882;BME280;7533;51.278;12.588;2022-09-09T20:38:24;99777.97;;;26.41;60.03
14882;BME280;7533;51.278;12.588;2022-09-09T20:43:28;99780.44;;;26.44;60.35
14882;BME280;7533;51.278;12.588;2022-09-09T20:48:31;99774.00;;;26.45;59.73
14882;BME280;7533;51.278;12.588;2022-09-09T20:53:34;99772.28;;;26.44;59.94
14882;BME280;7533;51.278;12.588;2022-09-09T20:58:39;99771.28;;;26.45;59.75
14882;BME280;7533;51.278;12.588;2022-09-09T21:03:42;99771.28;;;26.45;59.56
14882;BME280;7533;51.278;12.588;2022-09-09T21:08:45;99767.13;;;26.41;59.74
14882;BME280;7533;51.278;12.588;2022-09-09T21:13:49;99764.41;;;26.41;59.75
14882;BME280;7533;51.278;12.588;2022-09-09T21:18:53;99764.16;;;26.44;59.78
14882;BME280;7533;51.278;12.588;2022-09-09T21:23:56;99765.28;;;26.41;59.99
14882;BME280;7533;51.278;12.588;2022-09-09T21:29:02;99760.72;;;26.42;59.78
14882;BME280;7533;51.278;12.588;2022-09-09T21:34:05;99758.97;;;26.41;59.78
14882;BME280;7533;51.278;12.588;2022-09-09T21:39:07;99756.00;;;26.44;59.70
14882;BME280;7533;51.278;12.588;2022-09-09T21:44:11;99763.13;;;26.45;59.72
14882;BME280;7533;51.278;12.588;2022-09-09T21:49:14;99768.56;;;26.45;59.88
14882;BME280;7533;51.278;12.588;2022-09-09T21:54:17;99760.56;;;26.43;59.76
14882;BME280;7533;51.278;12.588;2022-09-09T21:59:21;99765.13;;;26.43;59.99
14882;BME280;7533;51.278;12.588;2022-09-09T22:04:25;99771.13;;;26.46;59.46
14882;BME280;7533;51.278;12.588;2022-09-09T22:09:28;99769.41;;;26.45;59.74
14882;BME280;7533;51.278;12.588;2022-09-09T22:14:33;99763.53;;;26.50;59.46
14882;BME280;7533;51.278;12.588;2022-09-09T22:19:37;99758.25;;;26.48;59.38
14882;BME280;7533;51.278;12.588;2022-09-09T22:24:40;99749.25;;;26.48;59.19
14882;BME280;7533;51.278;12.588;2022-09-09T22:29:44;99757.25;;;26.49;59.38
14882;BME280;7533;51.278;12.588;2022-09-09T22:34:46;99756.38;;;26.49;59.36
14882;BME280;7533;51.278;12.588;2022-09-09T22:39:51;99771.69;;;26.50;59.08
14882;BME280;7533;51.278;12.588;2022-09-09T22:44:55;99772.97;;;26.46;59.42
14882;BME280;7533;51.278;12.588;2022-09-09T22:49:58;99780.50;;;26.52;59.62
14882;BME280;7533;51.278;12.588;2022-09-09T22:55:02;99782.94;;;26.55;59.87
14882;BME280;7533;51.278;12.588;2022-09-09T23:00:07;99771.75;;;26.58;60.00
14882;BME280;7533;51.278;12.588;2022-09-09T23:05:10;99763.16;;;26.62;60.24
14882;BME280;7533;51.278;12.588;2022-09-09T23:10:13;99758.31;;;26.66;60.19
14882;BME280;7533;51.278;12.588;2022-09-09T23:15:17;99757.53;;;26.74;60.16
14882;BME280;7533;51.278;12.588;2022-09-09T23:20:20;99762.72;;;26.67;60.63
14882;BME280;7533;51.278;12.588;2022-09-09T23:25:27;99755.25;;;26.69;60.90
14882;BME280;7533;51.278;12.588;2022-09-09T23:30:31;99752.09;;;26.74;60.80
14882;BME280;7533;51.278;12.588;2022-09-09T23:35:33;99752.50;;;26.79;60.71
14882;BME280;7533;51.278;12.588;2022-09-09T23:40:36;99751.47;;;26.80;60.84
14882;BME280;7533;51.278;12.588;2022-09-09T23:45:41;99741.94;;;26.76;61.19
14882;BME280;7533;51.278;12.588;2022-09-09T23:50:44;99739.16;;;26.85;61.03
14882;BME280;7533;51.278;12.588;2022-09-09T23:55:47;99738.13;;;26.86;60.95
